sensor_id;sensor_type;location;lat;lon;timestamp;pressure;altitude;pressure_sealevel;temperature;humidity
5988;BME280;3021;51.000;6.980;2022-11-09T00:02:24;68029.88;;;15.50;100.00
5988;BME280;3021;51.000;6.980;2022-11-09T00:04:49;68013.75;;;15.38;100.00
5988;BME280;3021;51.000;6.980;2022-11-09T00:07:15;68002.16;;;15.28;100.00
5988;BME280;3021;51.000;6.980;2022-11-09T00:09:40;68015.94;;;15.38;100.00
5988;BME280;3021;51.000;6.980;2022-11-09T00:12:06;68008.41;;;15.31;100.00
5988;BME280;3021;51.000;6.980;2022-11-09T00:14:32;68009.00;;;15.32;100.00
5988;BME280;3021;51.000;6.980;2022-11-09T00:16:57;68003.31;;;15.29;100.00
5988;BME280;3021;51.000;6.980;2022-11-09T00:19:23;67998.69;;;15.25;100.00
5988;BME280;3021;51.000;6.980;2022-11-09T00:21:48;68000.28;;;15.24;100.00
5988;BME280;3021;51.000;6.980;2022-11-09T00:24:14;67995.78;;;15.23;100.00
5988;BME280;3021;51.000;6.980;2022-11-09T00:26:40;67992.28;;;15.19;100.00
5988;BME280;3021;51.000;6.980;2022-11-09T00:29:05;67994.59;;;15.21;100.00
5988;BME280;3021;51.000;6.980;2022-11-09T00:31:31;67985.91;;;15.14;100.00
5988;BME280;3021;51.000;6.980;2022-11-09T00:33:57;67986.34;;;15.12;100.00
5988;BME280;3021;51.000;6.980;2022-11-09T00:36:24;67998.09;;;15.25;100.00
5988;BME280;3021;51.000;6.980;2022-11-09T00:38:51;67985.91;;;15.14;100.00
5988;BME280;3021;51.000;6.980;2022-11-09T00:41:17;67989.38;;;15.17;100.00
5988;BME280;3021;51.000;6.980;2022-11-09T00:43:43;67997.38;;;15.21;100.00
5988;BME280;3021;51.000;6.980;2022-11-09T00:46:08;67982.44;;;15.11;100.00
5988;BME280;3021;51.000;6.980;2022-11-09T00:48:35;67983.59;;;15.12;100.00
5988;BME280;3021;51.000;6.980;2022-11-09T00:51:00;67982.31;;;15.08;100.00
5988;BME280;3021;51.000;6.980;2022-11-09T00:53:26;67985.19;;;15.11;100.00
5988;BME280;3021;51.000;6.980;2022-11-09T00:55:55;67982.88;;;15.09;100.00
5988;BME280;3021;51.000;6.980;2022-11-09T00:58:22;67980.69;;;15.09;100.00
5988;BME280;3021;51.000;6.980;2022-11-09T01:00:47;67982.31;;;15.08;100.00
5988;BME280;3021;51.000;6.980;2022-11-09T01:03:13;67972.00;;;15.01;100.00
5988;BME280;3021;51.000;6.980;2022-11-09T01:05:38;67974.31;;;15.03;100.00
5988;BME280;3021;51.000;6.980;2022-11-09T01:08:04;67962.59;;;14.91;100.00
5988;BME280;3021;51.000;6.980;2022-11-09T01:10:30;67968.38;;;14.96;100.00
5988;BME280;3021;51.000;6.980;2022-11-09T01:12:55;67963.88;;;14.94;100.00
5988;BME280;3021;51.000;6.980;2022-11-09T01:15:20;67968.38;;;14.96;100.00
5988;BME280;3021;51.000;6.980;2022-11-09T01:17:46;67960.25;;;14.89;100.00
5988;BME280;3021;51.000;6.980;2022-11-09T01:20:12;67960.41;;;14.91;100.00
5988;BME280;3021;51.000;6.980;2022-11-09T01:22:38;67962.00;;;14.90;100.00
5988;BME280;3021;51.000;6.980;2022-11-09T01:25:04;67963.16;;;14.91;100.00
5988;BME280;3021;51.000;6.980;2022-11-09T01:27:29;67956.91;;;14.88;100.00
5988;BME280;3021;51.000;6.980;2022-11-09T01:29:54;67971.84;;;14.99;100.00
5988;BME280;3021;51.000;6.980;2022-11-09T01:32:20;67981.28;;;15.10;100.00
5988;BME280;3021;51.000;6.980;2022-11-09T01:34:45;67984.03;;;15.10;100.00
5988;BME280;3021;51.000;6.980;2022-11-09T01:37:10;67972.00;;;15.01;100.00
5988;BME280;3021;51.000;6.980;2022-11-09T01:39:36;67984.03;;;15.10;100.00
5988;BME280;3021;51.000;6.980;2022-11-09T01:42:01;67982.44;;;15.11;100.00
5988;BME280;3021;51.000;6.980;2022-11-09T01:44:26;67987.50;;;15.13;100.00
5988;BME280;3021;51.000;6.980;2022-11-09T01:47:06;67988.69;;;15.14;100.00
5988;BME280;3021;51.000;6.980;2022-11-09T01:49:43;67981.72;;;15.08;100.00
5988;BME280;3021;51.000;6.980;2022-11-09T01:52:31;67977.78;;;15.07;100.00
5988;BME280;3021;51.000;6.980;2022-11-09T01:55:09;67981.28;;;15.10;100.00
5988;BME280;3021;51.000;6.980;2022-11-09T01:57:39;67978.81;;;15.05;100.00
5988;BME280;3021;51.000;6.980;2022-11-09T02:00:10;67974.75;;;15.01;100.00
5988;BME280;3021;51.000;6.980;2022-11-09T02:02:38;67980.00;;;15.06;100.00
5988;BME280;3021;51.000;6.980;2022-11-09T02:05:13;67973.59;;;15.00;100.00
5988;BME280;3021;51.000;6.980;2022-11-09T02:07:40;67969.53;;;14.97;100.00
5988;BME280;3021;51.000;6.980;2022-11-09T02:10:13;67962.72;;;14.93;100.00
5988;BME280;3021;51.000;6.980;2022-11-09T02:12:43;67966.78;;;14.97;100.00
5988;BME280;3021;51.000;6.980;2022-11-09T02:15:09;67974.03;;;14.98;100.00
5988;BME280;3021;51.000;6.980;2022-11-09T02:17:37;67974.91;;;15.04;100.00
5988;BME280;3021;51.000;6.980;2022-11-09T02:20:13;67960.69;;;14.86;100.00
5988;BME280;3021;51.000;6.980;2022-11-09T02:22:40;67962.00;;;14.90;100.00
5988;BME280;3021;51.000;6.980;2022-11-09T02:25:07;67963.31;;;14.94;100.00
5988;BME280;3021;51.000;6.980;2022-11-09T02:27:34;67962.00;;;14.90;100.00
5988;BME280;3021;51.000;6.980;2022-11-09T02:29:59;67947.06;;;14.79;100.00
5988;BME280;3021;51.000;6.980;2022-11-09T02:32:28;67955.59;;;14.84;100.00
5988;BME280;3021;51.000;6.980;2022-11-09T02:34:53;67953.31;;;14.82;100.00
5988;BME280;3021;51.000;6.980;2022-11-09T02:40:08;67938.94;;;14.72;100.00
5988;BME280;3021;51.000;6.980;2022-11-09T02:42:34;67939.53;;;14.73;100.00
5988;BME280;3021;51.000;6.980;2022-11-09T02:45:00;67941.72;;;14.72;100.00
5988;BME280;3021;51.000;6.980;2022-11-09T02:47:26;67937.06;;;14.68;100.00
5988;BME280;3021;51.000;6.980;2022-11-09T02:49:51;67935.34;;;14.66;100.00
5988;BME280;3021;51.000;6.980;2022-11-09T02:52:17;67950.41;;;14.80;100.00
5988;BME280;3021;51.000;6.980;2022-11-09T02:54:43;67955.03;;;14.84;100.00
5988;BME280;3021;51.000;6.980;2022-11-09T02:57:08;67956.22;;;14.85;100.00
5988;BME280;3021;51.000;6.980;2022-11-09T02:59:34;67958.50;;;14.87;100.00
5988;BME280;3021;51.000;6.980;2022-11-09T03:01:59;67962.00;;;14.90;100.00
5988;BME280;3021;51.000;6.980;2022-11-09T03:04:24;67969.53;;;14.97;100.00
5988;BME280;3021;51.000;6.980;2022-11-09T03:06:50;67977.78;;;15.07;100.00
5988;BME280;3021;51.000;6.980;2022-11-09T03:09:15;67985.78;;;15.11;100.00
5988;BME280;3021;51.000;6.980;2022-11-09T03:11:41;67978.81;;;15.05;100.00
5988;BME280;3021;51.000;6.980;2022-11-09T03:14:07;67984.31;;;15.15;100.00
5988;BME280;3021;51.000;6.980;2022-11-09T03:16:34;67984.19;;;15.12;100.00
5988;BME280;3021;51.000;6.980;2022-11-09T03:19:00;67985.19;;;15.11;100.00
5988;BME280;3021;51.000;6.980;2022-11-09T03:21:25;67985.47;;;15.16;100.00
5988;BME280;3021;51.000;6.980;2022-11-09T03:23:51;67988.22;;;15.16;100.00
5988;BME280;3021;51.000;6.980;2022-11-09T03:26:18;67987.09;;;15.15;100.00
5988;BME280;3021;51.000;6.980;2022-11-09T03:28:43;67993.31;;;15.18;100.00
5988;BME280;3021;51.000;6.980;2022-11-09T03:31:09;67999.84;;;15.26;100.00
5988;BME280;3021;51.000;6.980;2022-11-09T03:33:34;68002.59;;;15.26;100.00
5988;BME280;3021;51.000;6.980;2022-11-09T03:35:59;67994.03;;;15.21;100.00
5988;BME280;3021;51.000;6.980;2022-11-09T03:38:25;67990.56;;;15.18;100.00
5988;BME280;3021;51.000;6.980;2022-11-09T03:40:50;67992.28;;;15.19;100.00
5988;BME280;3021;51.000;6.980;2022-11-09T03:43:16;67982.44;;;15.11;100.00
5988;BME280;3021;51.000;6.980;2022-11-09T03:45:41;67990.69;;;15.20;100.00
5988;BME280;3021;51.000;6.980;2022-11-09T03:48:07;67988.69;;;15.14;100.00
5988;BME280;3021;51.000;6.980;2022-11-09T03:50:33;67993.47;;;15.20;100.00
5988;BME280;3021;51.000;6.980;2022-11-09T03:52:59;67992.16;;;15.17;100.00
5988;BME280;3021;51.000;6.980;2022-11-09T03:55:25;67990.56;;;15.18;100.00
5988;BME280;3021;51.000;6.980;2022-11-09T03:57:51;67992.16;;;15.17;100.00
5988;BME280;3021;51.000;6.980;2022-11-09T04:00:19;67993.91;;;15.18;100.00
5988;BME280;3021;51.000;6.980;2022-11-09T04:02:45;67983.59;;;15.12;100.00
5988;BME280;3021;51.000;6.980;2022-11-09T04:05:10;67982.75;;;15.06;100.00
5988;BME280;3021;51.000;6.980;2022-11-09T04:07:37;67984.03;;;15.10;100.00
5988;BME280;3021;51.000;6.980;2022-11-09T04:10:03;67970.09;;;14.97;100.00
5988;BME280;3021;51.000;6.980;2022-11-09T04:12:28;67977.66;;;15.04;100.00
5988;BME280;3021;51.000;6.980;2022-11-09T04:14:54;67985.91;;;15.14;100.00
5988;BME280;3021;51.000;6.980;2022-11-09T04:17:19;67993.31;;;15.18;100.00
5988;BME280;3021;51.000;6.980;2022-11-09T04:19:44;67989.09;;;15.12;100.00
5988;BME280;3021;51.000;6.980;2022-11-09T04:22:10;67982.88;;;15.09;100.00
5988;BME280;3021;51.000;6.980;2022-11-09T04:24:35;67985.91;;;15.14;100.00
5988;BME280;3021;51.000;6.980;2022-11-09T04:27:00;67979.09;;;15.10;100.00
5988;BME280;3021;51.000;6.980;2022-11-09T04:29:26;67985.34;;;15.13;100.00
5988;BME280;3021;51.000;6.980;2022-11-09T04:31:51;67992.72;;;15.17;100.00
5988;BME280;3021;51.000;6.980;2022-11-09T04:34:17;67994.59;;;15.21;100.00
5988;BME280;3021;51.000;6.980;2022-11-09T04:36:42;67992.16;;;15.17;100.00
5988;BME280;3021;51.000;6.980;2022-11-09T04:39:08;67989.38;;;15.17;100.00
5988;BME280;3021;51.000;6.980;2022-11-09T04:41:33;67989.97;;;15.17;100.00
5988;BME280;3021;51.000;6.980;2022-11-09T04:43:58;67977.78;;;15.07;100.00
5988;BME280;3021;51.000;6.980;2022-11-09T04:46:24;67970.09;;;14.97;100.00
5988;BME280;3021;51.000;6.980;2022-11-09T04:48:49;67943.00;;;14.76;100.00
5988;BME280;3021;51.000;6.980;2022-11-09T04:51:14;67931.97;;;14.66;100.00
5988;BME280;3021;51.000;6.980;2022-11-09T04:53:40;67927.94;;;14.62;100.00
5988;BME280;3021;51.000;6.980;2022-11-09T04:56:06;67932.25;;;14.61;100.00
5988;BME280;3021;51.000;6.980;2022-11-09T04:58:32;67939.38;;;14.70;100.00
5988;BME280;3021;51.000;6.980;2022-11-09T05:01:05;67949.22;;;14.79;100.00
5988;BME280;3021;51.000;6.980;2022-11-09T05:03:30;67944.72;;;14.77;100.00
5988;BME280;3021;51.000;6.980;2022-11-09T05:05:56;67959.81;;;14.91;100.00
5988;BME280;3021;51.000;6.980;2022-11-09T05:08:21;67971.28;;;14.98;100.00
5988;BME280;3021;51.000;6.980;2022-11-09T05:10:47;67978.38;;;15.07;100.00
5988;BME280;3021;51.000;6.980;2022-11-09T05:13:13;67973.00;;;15.00;100.00
5988;BME280;3021;51.000;6.980;2022-11-09T05:15:39;67974.75;;;15.01;100.00
5988;BME280;3021;51.000;6.980;2022-11-09T05:18:05;67970.00;;;14.95;100.00
5988;BME280;3021;51.000;6.980;2022-11-09T05:20:30;67958.09;;;14.89;100.00
5988;BME280;3021;51.000;6.980;2022-11-09T05:22:57;67964.31;;;14.92;100.00
5988;BME280;3021;51.000;6.980;2022-11-09T05:25:41;67968.97;;;14.96;100.00
5988;BME280;3021;51.000;6.980;2022-11-09T05:28:07;67956.78;;;14.85;100.00
5988;BME280;3021;51.000;6.980;2022-11-09T05:30:32;67948.09;;;14.78;100.00
5988;BME280;3021;51.000;6.980;2022-11-09T05:32:57;67941.72;;;14.72;100.00
5988;BME280;3021;51.000;6.980;2022-11-09T05:35:23;67942.44;;;14.75;100.00
5988;BME280;3021;51.000;6.980;2022-11-09T05:37:48;67920.97;;;14.56;100.00
5988;BME280;3021;51.000;6.980;2022-11-09T05:40:15;67917.47;;;14.53;100.00
5988;BME280;3021;51.000;6.980;2022-11-09T05:42:41;67919.78;;;14.55;100.00
5988;BME280;3021;51.000;6.980;2022-11-09T05:45:11;67909.22;;;14.43;100.00
5988;BME280;3021;51.000;6.980;2022-11-09T05:47:38;67901.53;;;14.34;100.00
5988;BME280;3021;51.000;6.980;2022-11-09T05:50:05;67908.63;;;14.43;100.00
5988;BME280;3021;51.000;6.980;2022-11-09T05:52:31;67905.00;;;14.37;100.00
5988;BME280;3021;51.000;6.980;2022-11-09T05:54:56;67906.31;;;14.41;100.00
5988;BME280;3021;51.000;6.980;2022-11-09T05:57:22;67909.22;;;14.43;100.00
5988;BME280;3021;51.000;6.980;2022-11-09T05:59:47;67904.59;;;14.39;100.00
5988;BME280;3021;51.000;6.980;2022-11-09T06:02:13;67918.06;;;14.54;100.00
5988;BME280;3021;51.000;6.980;2022-11-09T06:04:38;67920.38;;;14.56;100.00
5988;BME280;3021;51.000;6.980;2022-11-09T06:07:03;67907.47;;;14.42;100.00
5988;BME280;3021;51.000;6.980;2022-11-09T06:09:29;67904.00;;;14.39;100.00
5988;BME280;3021;51.000;6.980;2022-11-09T06:11:54;67906.75;;;14.39;100.00
5988;BME280;3021;51.000;6.980;2022-11-09T06:14:19;67919.78;;;14.55;100.00
5988;BME280;3021;51.000;6.980;2022-11-09T06:16:45;67909.34;;;14.46;100.00
5988;BME280;3021;51.000;6.980;2022-11-09T06:19:10;67892.41;;;14.28;100.00
5988;BME280;3021;51.000;6.980;2022-11-09T06:21:35;67893.56;;;14.29;100.00
5988;BME280;3021;51.000;6.980;2022-11-09T06:24:01;67887.75;;;14.24;100.00
5988;BME280;3021;51.000;6.980;2022-11-09T06:26:26;67881.38;;;14.18;100.00
5988;BME280;3021;51.000;6.980;2022-11-09T06:28:51;67872.25;;;14.13;100.00
5988;BME280;3021;51.000;6.980;2022-11-09T06:31:17;67864.72;;;14.06;100.00
5988;BME280;3021;51.000;6.980;2022-11-09T06:33:44;67868.06;;;14.07;100.00
5988;BME280;3021;51.000;6.980;2022-11-09T06:36:10;67828.22;;;13.74;100.00
5988;BME280;3021;51.000;6.980;2022-11-09T06:38:36;67796.94;;;13.46;100.00
5988;BME280;3021;51.000;6.980;2022-11-09T06:41:01;67778.69;;;13.25;100.00
5988;BME280;3021;51.000;6.980;2022-11-09T06:43:27;67746.25;;;12.96;100.00
5988;BME280;3021;51.000;6.980;2022-11-09T06:45:53;67723.25;;;12.78;100.00
5988;BME280;3021;51.000;6.980;2022-11-09T06:48:18;67733.53;;;12.85;100.00
5988;BME280;3021;51.000;6.980;2022-11-09T06:50:44;67726.13;;;12.81;100.00
5988;BME280;3021;51.000;6.980;2022-11-09T06:53:12;67722.06;;;12.77;100.00
5988;BME280;3021;51.000;6.980;2022-11-09T06:55:38;67737.72;;;12.91;100.00
5988;BME280;3021;51.000;6.980;2022-11-09T06:58:12;67740.63;;;12.93;100.00
5988;BME280;3021;51.000;6.980;2022-11-09T07:00:40;67734.09;;;12.85;100.00
5988;BME280;3021;51.000;6.980;2022-11-09T07:03:05;67730.91;;;12.87;100.00
5988;BME280;3021;51.000;6.980;2022-11-09T07:05:31;67735.97;;;12.89;100.00
5988;BME280;3021;51.000;6.980;2022-11-09T07:07:56;67745.66;;;12.95;100.00
5988;BME280;3021;51.000;6.980;2022-11-09T07:10:22;67740.75;;;12.96;100.00
5988;BME280;3021;51.000;6.980;2022-11-09T07:12:47;67743.06;;;12.98;100.00
5988;BME280;3021;51.000;6.980;2022-11-09T07:15:13;67749.84;;;13.02;100.00
5988;BME280;3021;51.000;6.980;2022-11-09T07:17:38;67758.41;;;13.07;100.00
5988;BME280;3021;51.000;6.980;2022-11-09T07:20:08;67768.84;;;13.16;100.00
5988;BME280;3021;51.000;6.980;2022-11-09T07:22:35;67760.16;;;13.08;100.00
5988;BME280;3021;51.000;6.980;2022-11-09T07:25:08;67769.84;;;13.14;100.00
5988;BME280;3021;51.000;6.980;2022-11-09T07:27:34;67775.78;;;13.22;100.00
5988;BME280;3021;51.000;6.980;2022-11-09T07:29:59;67773.03;;;13.22;100.00
5988;BME280;3021;51.000;6.980;2022-11-09T07:32:25;67777.81;;;13.29;100.00
5988;BME280;3021;51.000;6.980;2022-11-09T07:34:50;67790.56;;;13.40;100.00
5988;BME280;3021;51.000;6.980;2022-11-09T07:37:15;67803.31;;;13.52;100.00
5988;BME280;3021;51.000;6.980;2022-11-09T07:39:42;67810.13;;;13.55;100.00
5988;BME280;3021;51.000;6.980;2022-11-09T07:42:08;67803.31;;;13.52;100.00
5988;BME280;3021;51.000;6.980;2022-11-09T07:44:33;67801.44;;;13.47;100.00
5988;BME280;3021;51.000;6.980;2022-11-09T07:46:58;67801.56;;;13.50;100.00
5988;BME280;3021;51.000;6.980;2022-11-09T07:49:23;67796.06;;;13.40;100.00
5988;BME280;3021;51.000;6.980;2022-11-09T07:51:49;67781.72;;;13.30;100.00
5988;BME280;3021;51.000;6.980;2022-11-09T07:54:14;67787.38;;;13.32;100.00
5988;BME280;3021;51.000;6.980;2022-11-09T07:56:40;67776.66;;;13.28;100.00
5988;BME280;3021;51.000;6.980;2022-11-09T07:59:05;67795.06;;;13.42;100.00
5988;BME280;3021;51.000;6.980;2022-11-09T08:01:30;67800.13;;;13.44;100.00
5988;BME280;3021;51.000;6.980;2022-11-09T08:03:56;67808.38;;;13.54;100.00
5988;BME280;3021;51.000;6.980;2022-11-09T08:06:21;67822.31;;;13.66;100.00
5988;BME280;3021;51.000;6.980;2022-11-09T08:08:52;67827.50;;;13.71;100.00
5988;BME280;3021;51.000;6.980;2022-11-09T08:11:18;67831.69;;;13.77;100.00
5988;BME280;3021;51.000;6.980;2022-11-09T08:13:43;67840.38;;;13.85;100.00
5988;BME280;3021;51.000;6.980;2022-11-09T08:16:08;67840.97;;;13.85;100.00
5988;BME280;3021;51.000;6.980;2022-11-09T08:18:34;67843.13;;;13.85;100.00
5988;BME280;3021;51.000;6.980;2022-11-09T08:21:03;67840.38;;;13.85;100.00
5988;BME280;3021;51.000;6.980;2022-11-09T08:23:29;67846.19;;;13.90;100.00
5988;BME280;3021;51.000;6.980;2022-11-09T08:25:54;67864.13;;;14.06;100.00
5988;BME280;3021;51.000;6.980;2022-11-09T08:28:20;67869.38;;;14.10;100.00
5988;BME280;3021;51.000;6.980;2022-11-09T08:30:56;67897.63;;;14.33;100.00
5988;BME280;3021;51.000;6.980;2022-11-09T08:33:22;67923.72;;;14.56;100.00
5988;BME280;3021;51.000;6.980;2022-11-09T08:35:47;67953.44;;;14.85;100.00
5988;BME280;3021;51.000;6.980;2022-11-09T08:38:12;67968.50;;;14.98;100.00
5988;BME280;3021;51.000;6.980;2022-11-09T08:40:38;67980.69;;;15.09;100.00
5988;BME280;3021;51.000;6.980;2022-11-09T08:43:06;68005.19;;;15.33;100.00
5988;BME280;3021;51.000;6.980;2022-11-09T08:45:34;68013.75;;;15.38;100.00
5988;BME280;3021;51.000;6.980;2022-11-09T08:48:00;68011.88;;;15.34;100.00
5988;BME280;3021;51.000;6.980;2022-11-09T08:50:27;68008.53;;;15.34;100.00
5988;BME280;3021;51.000;6.980;2022-11-09T08:52:53;68031.16;;;15.54;100.00
5988;BME280;3021;51.000;6.980;2022-11-09T08:55:18;68063.09;;;15.82;100.00
5988;BME280;3021;51.000;6.980;2022-11-09T08:57:43;68104.88;;;16.19;100.00
5988;BME280;3021;51.000;6.980;2022-11-09T09:00:09;68127.38;;;16.37;100.00
5988;BME280;3021;51.000;6.980;2022-11-09T09:02:35;68159.47;;;16.68;100.00
5988;BME280;3021;51.000;6.980;2022-11-09T09:05:00;68244.88;;;17.43;100.00
5988;BME280;3021;51.000;6.980;2022-11-09T09:07:25;68333.13;;;18.19;100.00
5988;BME280;3021;51.000;6.980;2022-11-09T09:09:51;68507.19;;;19.76;100.00
5988;BME280;3021;51.000;6.980;2022-11-09T09:12:16;68557.91;;;20.20;100.00
5988;BME280;3021;51.000;6.980;2022-11-09T09:14:42;68507.19;;;19.76;100.00
5988;BME280;3021;51.000;6.980;2022-11-09T09:17:07;68639.44;;;20.93;100.00
5988;BME280;3021;51.000;6.980;2022-11-09T09:19:32;68764.91;;;22.06;100.00
5988;BME280;3021;51.000;6.980;2022-11-09T09:21:58;68752.06;;;21.95;100.00
5988;BME280;3021;51.000;6.980;2022-11-09T09:24:24;68646.44;;;20.99;100.00
5988;BME280;3021;51.000;6.980;2022-11-09T09:26:50;68589.31;;;20.48;100.00
5988;BME280;3021;51.000;6.980;2022-11-09T09:29:16;68513.75;;;19.84;100.00
5988;BME280;3021;51.000;6.980;2022-11-09T09:31:41;68595.88;;;20.57;100.00
5988;BME280;3021;51.000;6.980;2022-11-09T09:34:07;68613.81;;;20.70;100.00
5988;BME280;3021;51.000;6.980;2022-11-09T09:36:32;68640.72;;;20.96;100.00
5988;BME280;3021;51.000;6.980;2022-11-09T09:38:59;68656.47;;;21.10;100.00
5988;BME280;3021;51.000;6.980;2022-11-09T09:44:05;68763.63;;;22.02;100.00
5988;BME280;3021;51.000;6.980;2022-11-09T09:46:39;68754.28;;;21.94;100.00
5988;BME280;3021;51.000;6.980;2022-11-09T09:49:17;68598.06;;;20.56;100.00
5988;BME280;3021;51.000;6.980;2022-11-09T09:51:52;68510.84;;;19.81;100.00
5988;BME280;3021;51.000;6.980;2022-11-09T09:54:24;68553.81;;;20.17;100.00
5988;BME280;3021;51.000;6.980;2022-11-09T09:56:53;68580.72;;;20.43;100.00
5988;BME280;3021;51.000;6.980;2022-11-09T09:59:42;68583.50;;;20.43;100.00
5988;BME280;3021;51.000;6.980;2022-11-09T10:04:48;68336.16;;;18.24;100.00
5988;BME280;3021;51.000;6.980;2022-11-09T10:07:23;68353.03;;;18.39;100.00
5988;BME280;3021;51.000;6.980;2022-11-09T10:13:04;68344.28;;;18.31;100.00
5988;BME280;3021;51.000;6.980;2022-11-09T10:15:53;68328.00;;;18.17;100.00
5988;BME280;3021;51.000;6.980;2022-11-09T10:26:18;68365.81;;;18.51;100.00
5988;BME280;3021;51.000;6.980;2022-11-09T10:28:58;68390.94;;;18.75;100.00
5988;BME280;3021;51.000;6.980;2022-11-09T10:31:30;68404.78;;;18.85;100.00
5988;BME280;3021;51.000;6.980;2022-11-09T10:34:02;68375.56;;;18.57;100.00
5988;BME280;3021;51.000;6.980;2022-11-09T10:36:40;68320.31;;;18.08;100.00
5988;BME280;3021;51.000;6.980;2022-11-09T10:39:12;68310.56;;;18.02;100.00
5988;BME280;3021;51.000;6.980;2022-11-09T10:41:44;68301.84;;;17.94;100.00
5988;BME280;3021;51.000;6.980;2022-11-09T10:44:15;68297.78;;;17.90;100.00
5988;BME280;3021;51.000;6.980;2022-11-09T10:47:00;68284.25;;;17.76;100.00
5988;BME280;3021;51.000;6.980;2022-11-09T10:49:25;68286.13;;;17.80;100.00
5988;BME280;3021;51.000;6.980;2022-11-09T10:51:51;68288.91;;;17.80;100.00
5988;BME280;3021;51.000;6.980;2022-11-09T10:54:28;68256.50;;;17.54;100.00
5988;BME280;3021;51.000;6.980;2022-11-09T10:57:17;68242.53;;;17.41;100.00
5988;BME280;3021;51.000;6.980;2022-11-09T10:59:47;68238.94;;;17.36;100.00
5988;BME280;3021;51.000;6.980;2022-11-09T11:04:55;68216.88;;;17.16;100.00
5988;BME280;3021;51.000;6.980;2022-11-09T11:07:39;68221.63;;;17.23;100.00
5988;BME280;3021;51.000;6.980;2022-11-09T11:12:40;68197.09;;;16.99;100.00
5988;BME280;3021;51.000;6.980;2022-11-09T11:15:28;68206.41;;;17.07;100.00
5988;BME280;3021;51.000;6.980;2022-11-09T11:18:01;68236.00;;;17.33;100.00
5988;BME280;3021;51.000;6.980;2022-11-09T11:20:35;68242.09;;;17.43;100.00
5988;BME280;3021;51.000;6.980;2022-11-09T11:23:18;68226.28;;;17.27;100.00
5988;BME280;3021;51.000;6.980;2022-11-09T11:28:34;68227.88;;;17.26;100.00
5988;BME280;3021;51.000;6.980;2022-11-09T11:33:32;68212.94;;;17.15;100.00
5988;BME280;3021;51.000;6.980;2022-11-09T11:36:11;68225.00;;;17.23;100.00
5988;BME280;3021;51.000;6.980;2022-11-09T11:42:12;68196.06;;;17.00;100.00
5988;BME280;3021;51.000;6.980;2022-11-09T11:58:22;68123.91;;;16.34;100.00
5988;BME280;3021;51.000;6.980;2022-11-09T12:09:04;68121.56;;;16.32;100.00
5988;BME280;3021;51.000;6.980;2022-11-09T12:14:34;68133.78;;;16.42;100.00
5988;BME280;3021;51.000;6.980;2022-11-09T12:25:24;68168.03;;;16.73;100.00
5988;BME280;3021;51.000;6.980;2022-11-09T12:30:26;68170.50;;;16.78;100.00
5988;BME280;3021;51.000;6.980;2022-11-09T12:33:05;68170.94;;;16.75;100.00
5988;BME280;3021;51.000;6.980;2022-11-09T12:35:46;68157.59;;;16.64;100.00
5988;BME280;3021;51.000;6.980;2022-11-09T12:38:32;68165.84;;;16.73;100.00
5988;BME280;3021;51.000;6.980;2022-11-09T12:45:56;68179.06;;;16.83;100.00
5988;BME280;3021;51.000;6.980;2022-11-09T12:48:25;68190.28;;;16.95;100.00
5988;BME280;3021;51.000;6.980;2022-11-09T12:50:53;68200.00;;;17.01;100.00
5988;BME280;3021;51.000;6.980;2022-11-09T12:53:21;68176.44;;;16.85;100.00
5988;BME280;3021;51.000;6.980;2022-11-09T12:55:57;68207.56;;;17.08;100.00
5988;BME280;3021;51.000;6.980;2022-11-09T12:58:29;68218.72;;;17.20;100.00
5988;BME280;3021;51.000;6.980;2022-11-09T13:00:57;68232.09;;;17.32;100.00
5988;BME280;3021;51.000;6.980;2022-11-09T13:03:29;68223.38;;;17.24;100.00
5988;BME280;3021;51.000;6.980;2022-11-09T13:08:44;68231.50;;;17.32;100.00
5988;BME280;3021;51.000;6.980;2022-11-09T13:11:35;68221.63;;;17.23;100.00
5988;BME280;3021;51.000;6.980;2022-11-09T13:14:25;68219.63;;;17.16;100.00
5988;BME280;3021;51.000;6.980;2022-11-09T13:19:54;68184.19;;;16.85;100.00
5988;BME280;3021;51.000;6.980;2022-11-09T13:25:01;68157.00;;;16.63;100.00
5988;BME280;3021;51.000;6.980;2022-11-09T13:38:15;68087.34;;;16.01;100.00
5988;BME280;3021;51.000;6.980;2022-11-09T13:40:43;68075.16;;;15.91;100.00
5988;BME280;3021;51.000;6.980;2022-11-09T13:45:59;68051.19;;;15.67;100.00
5988;BME280;3021;51.000;6.980;2022-11-09T13:50:58;68040.75;;;15.58;100.00
5988;BME280;3021;51.000;6.980;2022-11-09T13:58:46;68026.81;;;15.45;100.00
5988;BME280;3021;51.000;6.980;2022-11-09T14:01:32;68009.00;;;15.32;100.00
5988;BME280;3021;51.000;6.980;2022-11-09T14:03:58;67996.94;;;15.24;100.00
5988;BME280;3021;51.000;6.980;2022-11-09T14:06:27;68005.50;;;15.29;100.00
5988;BME280;3021;51.000;6.980;2022-11-09T14:08:53;67988.81;;;15.16;100.00
5988;BME280;3021;51.000;6.980;2022-11-09T14:16:53;68022.47;;;15.46;100.00
5988;BME280;3021;51.000;6.980;2022-11-09T14:21:56;68030.44;;;15.51;100.00
5988;BME280;3021;51.000;6.980;2022-11-09T14:24:24;68038.56;;;15.58;100.00
5988;BME280;3021;51.000;6.980;2022-11-09T14:29:35;68026.50;;;15.50;100.00
5988;BME280;3021;51.000;6.980;2022-11-09T14:32:14;68027.13;;;15.50;100.00
5988;BME280;3021;51.000;6.980;2022-11-09T14:34:40;68029.41;;;15.52;100.00
5988;BME280;3021;51.000;6.980;2022-11-09T14:37:06;68035.81;;;15.58;100.00
5988;BME280;3021;51.000;6.980;2022-11-09T14:39:32;68036.38;;;15.59;100.00
5988;BME280;3021;51.000;6.980;2022-11-09T14:41:58;68036.69;;;15.54;100.00
5988;BME280;3021;51.000;6.980;2022-11-09T14:44:41;68033.94;;;15.54;100.00
5988;BME280;3021;51.000;6.980;2022-11-09T14:47:15;68006.78;;;15.32;100.00
5988;BME280;3021;51.000;6.980;2022-11-09T14:49:42;67986.94;;;15.12;100.00
5988;BME280;3021;51.000;6.980;2022-11-09T14:52:12;67967.81;;;14.95;100.00
5988;BME280;3021;51.000;6.980;2022-11-09T14:54:40;67967.94;;;14.98;100.00
5988;BME280;3021;51.000;6.980;2022-11-09T14:57:05;67983.31;;;15.07;100.00
5988;BME280;3021;51.000;6.980;2022-11-09T14:59:33;67988.09;;;15.13;100.00
5988;BME280;3021;51.000;6.980;2022-11-09T15:02:12;67984.59;;;15.10;100.00
5988;BME280;3021;51.000;6.980;2022-11-09T15:07:19;67981.28;;;15.10;100.00
5988;BME280;3021;51.000;6.980;2022-11-09T15:09:48;67977.09;;;15.03;100.00
5988;BME280;3021;51.000;6.980;2022-11-09T15:12:15;67961.56;;;14.92;100.00